createdAt,value
2023-04-17T00:01:00.347Z,79.49
2023-04-17T00:03:26.791Z,80.09
2023-04-17T00:05:53.302Z,80.15
2023-04-17T00:08:19.572Z,80.13
2023-04-17T00:10:51.257Z,79.94
2023-04-17T00:13:26.770Z,80.13
2023-04-17T00:15:52.998Z,80.27
2023-04-17T00:18:19.249Z,80.24
2023-04-17T00:20:45.506Z,80.05
2023-04-17T00:23:11.756Z,79.94
2023-04-17T00:25:38.000Z,79.95
2023-04-17T00:28:04.329Z,79.80
2023-04-17T00:30:30.623Z,79.71
2023-04-17T00:32:56.897Z,79.72
2023-04-17T00:35:23.199Z,81.09
2023-04-17T00:37:49.549Z,81.27
2023-04-17T00:40:15.862Z,81.54
2023-04-17T00:42:42.196Z,82.09
2023-04-17T00:45:08.717Z,82.26
2023-04-17T00:47:35.034Z,80.74
2023-04-17T00:50:02.232Z,80.48
2023-04-17T00:52:29.041Z,81.96
2023-04-17T00:54:56.522Z,82.29
2023-04-17T00:57:23.686Z,81.93
2023-04-17T00:59:50.089Z,81.71
2023-04-17T01:02:17.501Z,80.40
2023-04-17T01:04:43.929Z,80.42
2023-04-17T01:07:10.580Z,80.51
2023-04-17T01:09:37.756Z,80.72
2023-04-17T01:12:17.275Z,81.24
2023-04-17T01:14:43.540Z,81.28
2023-04-17T01:17:10.012Z,81.21
2023-04-17T01:19:36.410Z,81.19
2023-04-17T01:22:02.698Z,81.10
2023-04-17T01:24:29.126Z,81.25
2023-04-17T01:26:55.554Z,81.69
2023-04-17T01:29:22.799Z,82.11
2023-04-17T01:31:49.744Z,82.33
2023-04-17T01:34:15.964Z,82.01
2023-04-17T01:36:42.249Z,81.89
2023-04-17T01:39:08.553Z,81.82
2023-04-17T01:41:34.851Z,81.76
2023-04-17T01:44:01.132Z,81.96
2023-04-17T01:46:28.966Z,81.97
2023-04-17T01:48:55.958Z,82.08
2023-04-17T01:51:22.186Z,82.11
2023-04-17T01:53:48.674Z,82.03
2023-04-17T01:56:14.971Z,81.91
2023-04-17T01:58:41.578Z,81.90
2023-04-17T02:01:07.901Z,81.81
2023-04-17T02:03:34.458Z,81.65
2023-04-17T02:06:00.893Z,82.51
2023-04-17T02:08:27.150Z,82.05
2023-04-17T02:10:53.462Z,81.79
2023-04-17T02:13:20.300Z,81.90
2023-04-17T02:15:46.825Z,82.06
2023-04-17T02:18:13.156Z,82.25
2023-04-17T02:20:39.493Z,82.28
2023-04-17T02:23:06.247Z,82.22
2023-04-17T02:25:32.854Z,82.41
2023-04-17T02:27:59.268Z,82.34
2023-04-17T02:30:27.223Z,82.35
2023-04-17T02:32:55.512Z,82.35
2023-04-17T02:35:23.595Z,82.32
2023-04-17T02:37:49.926Z,82.28
2023-04-17T02:40:16.182Z,82.36
2023-04-17T02:42:42.628Z,82.32
2023-04-17T02:45:09.393Z,82.38
2023-04-17T02:47:35.866Z,82.31
2023-04-17T02:50:03.152Z,82.33
2023-04-17T02:52:34.086Z,82.68
2023-04-17T02:55:00.758Z,82.85
2023-04-17T02:57:27.547Z,82.58
2023-04-17T02:59:53.950Z,82.49
2023-04-17T03:02:20.390Z,82.36
2023-04-17T03:04:47.557Z,82.35
2023-04-17T03:07:14.692Z,82.28
2023-04-17T03:09:40.968Z,82.30
2023-04-17T03:12:07.287Z,82.34
2023-04-17T03:14:33.607Z,82.51
2023-04-17T03:16:59.997Z,82.57
2023-04-17T03:19:26.265Z,82.49
2023-04-17T03:21:52.585Z,82.58
2023-04-17T03:24:18.805Z,82.65
2023-04-17T03:26:45.168Z,82.59
2023-04-17T03:29:15.441Z,82.55
2023-04-17T03:31:41.874Z,82.52
2023-04-17T03:34:08.202Z,82.47
2023-04-17T03:36:34.839Z,82.42
2023-04-17T03:39:04.302Z,82.38
2023-04-17T03:41:31.116Z,82.37
2023-04-17T03:43:57.609Z,82.47
2023-04-17T03:46:23.983Z,82.45
2023-04-17T03:48:50.520Z,82.39
2023-04-17T03:51:17.196Z,82.34
2023-04-17T03:53:43.544Z,82.34
2023-04-17T03:56:10.971Z,82.36
2023-04-17T03:58:40.354Z,82.35
2023-04-17T04:01:07.763Z,82.39
2023-04-17T04:03:34.663Z,82.49
2023-04-17T04:06:01.134Z,82.58
2023-04-17T04:08:27.978Z,82.72
2023-04-17T04:10:54.543Z,82.78
2023-04-17T04:13:33.355Z,82.76
2023-04-17T04:16:00.869Z,82.87
2023-04-17T04:18:28.870Z,82.87
2023-04-17T04:20:55.168Z,82.70
2023-04-17T04:23:30.658Z,82.85
2023-04-17T04:25:57.275Z,83.30
2023-04-17T04:28:28.076Z,83.96
2023-04-17T04:30:54.496Z,84.53
2023-04-17T04:33:24.319Z,84.83
2023-04-17T04:35:51.219Z,84.42
2023-04-17T04:38:17.609Z,84.39
2023-04-17T04:40:45.190Z,83.80
2023-04-17T04:43:11.566Z,83.05
2023-04-17T04:45:41.371Z,83.04
2023-04-17T04:48:07.667Z,82.99
2023-04-17T04:50:34.260Z,82.85
2023-04-17T04:53:00.915Z,82.84
2023-04-17T04:55:39.969Z,84.02
2023-04-17T04:58:06.308Z,83.31
2023-04-17T05:00:33.279Z,82.96
2023-04-17T05:03:00.556Z,82.98
2023-04-17T05:05:27.945Z,82.92
2023-04-17T05:07:54.733Z,82.76
2023-04-17T05:10:22.225Z,83.07
2023-04-17T05:12:51.792Z,82.64
2023-04-17T05:15:18.453Z,82.43
2023-04-17T05:17:44.973Z,82.27
2023-04-17T05:20:12.561Z,82.15
2023-04-17T05:22:45.679Z,81.96
2023-04-17T05:25:12.607Z,81.81
2023-04-17T05:27:38.945Z,81.74
2023-04-17T05:30:05.727Z,81.70
2023-04-17T05:32:32.545Z,81.59
2023-04-17T05:35:05.574Z,81.54
2023-04-17T05:37:32.210Z,81.52
2023-04-17T05:39:58.641Z,81.71
2023-04-17T05:42:25.027Z,81.74
2023-04-17T05:44:51.824Z,81.60
2023-04-17T05:47:18.196Z,81.39
2023-04-17T05:49:44.508Z,81.05
2023-04-17T05:52:10.887Z,80.74
2023-04-17T05:54:40.055Z,80.32
2023-04-17T05:57:07.678Z,79.67
2023-04-17T05:59:34.612Z,79.80
2023-04-17T06:02:01.102Z,79.97
2023-04-17T06:04:28.213Z,79.83
2023-04-17T06:06:55.526Z,79.06
2023-04-17T06:09:23.023Z,79.36
2023-04-17T06:11:50.944Z,79.55
2023-04-17T06:14:17.355Z,79.65
2023-04-17T06:16:43.974Z,79.74
2023-04-17T06:19:10.751Z,80.06
2023-04-17T06:21:37.821Z,79.71
2023-04-17T06:24:04.262Z,79.19
2023-04-17T06:26:31.202Z,78.99
2023-04-17T06:28:58.211Z,78.71
2023-04-17T06:31:24.738Z,78.00
2023-04-17T06:33:51.170Z,77.21
2023-04-17T06:36:19.301Z,76.80
2023-04-17T06:38:48.259Z,76.10
2023-04-17T06:41:16.136Z,75.97
2023-04-17T06:43:42.641Z,76.42
2023-04-17T06:46:13.372Z,77.06
2023-04-17T06:48:39.806Z,77.48
2023-04-17T06:51:06.668Z,77.79
2023-04-17T06:53:33.022Z,78.35
2023-04-17T06:55:59.521Z,79.01
2023-04-17T06:58:25.901Z,79.15
2023-04-17T07:00:55.338Z,79.94
2023-04-17T07:03:25.127Z,79.72
2023-04-17T07:05:51.587Z,79.20
2023-04-17T07:08:17.914Z,78.64
2023-04-17T07:10:44.354Z,78.21
2023-04-17T07:13:10.712Z,77.50
2023-04-17T07:15:37.280Z,77.00
2023-04-17T07:18:03.782Z,75.45
2023-04-17T07:20:30.318Z,74.87
2023-04-17T07:22:56.722Z,74.74
2023-04-17T07:25:23.088Z,73.98
2023-04-17T07:27:49.511Z,74.72
2023-04-17T07:30:15.841Z,74.44
2023-04-17T07:32:42.233Z,74.09
2023-04-17T07:35:08.672Z,73.34
2023-04-17T07:37:35.055Z,73.42
2023-04-17T07:40:01.440Z,73.86
2023-04-17T07:42:28.045Z,73.55
2023-04-17T07:44:55.234Z,71.55
2023-04-17T07:47:21.676Z,70.51
2023-04-17T07:49:48.249Z,70.70
2023-04-17T07:52:14.734Z,70.94
2023-04-17T07:54:41.139Z,71.32
2023-04-17T07:57:07.505Z,71.25
2023-04-17T07:59:33.916Z,70.99
2023-04-17T08:02:00.410Z,70.93
2023-04-17T08:04:27.132Z,70.83
2023-04-17T08:06:53.785Z,70.42
2023-04-17T08:09:20.624Z,70.96
2023-04-17T08:11:56.381Z,71.44
2023-04-17T08:14:24.196Z,71.77
2023-04-17T08:16:50.510Z,72.01
2023-04-17T08:19:16.913Z,71.94
2023-04-17T08:21:43.494Z,72.11
2023-04-17T08:24:09.883Z,72.29
2023-04-17T08:26:36.220Z,72.04
2023-04-17T08:29:02.645Z,71.97
2023-04-17T08:31:29.209Z,71.13
2023-04-17T08:34:06.250Z,70.57
2023-04-17T08:36:39.855Z,70.70
2023-04-17T08:39:06.178Z,70.78
2023-04-17T08:41:38.783Z,70.97
2023-04-17T08:44:05.205Z,70.65
2023-04-17T08:46:31.614Z,69.71
2023-04-17T08:48:58.055Z,68.54
2023-04-17T08:51:25.188Z,66.11
2023-04-17T08:53:51.584Z,65.09
2023-04-17T08:56:17.851Z,65.08
2023-04-17T08:58:44.388Z,63.51
2023-04-17T09:01:11.423Z,63.20
2023-04-17T09:58:12.959Z,63.28
2023-04-17T10:00:40.667Z,61.70
2023-04-17T10:03:07.774Z,61.89
2023-04-17T10:05:34.749Z,61.59
2023-04-17T10:08:02.109Z,61.97
2023-04-17T10:10:29.838Z,62.02
2023-04-17T10:12:57.526Z,62.17
2023-04-17T10:15:24.671Z,62.12
2023-04-17T10:17:51.540Z,61.70
2023-04-17T10:20:17.969Z,61.85
2023-04-17T10:22:44.363Z,61.95
2023-04-17T10:25:10.942Z,62.63
2023-04-17T10:27:37.413Z,62.51
2023-04-17T10:30:04.885Z,62.68
2023-04-17T10:32:31.667Z,61.42
2023-04-17T10:35:02.163Z,60.34
2023-04-17T10:37:46.835Z,60.18
2023-04-17T10:40:23.789Z,60.66
2023-04-17T10:43:03.058Z,61.54
2023-04-17T10:45:48.191Z,62.54
2023-04-17T10:48:19.204Z,63.51
2023-04-17T10:50:45.643Z,64.50
2023-04-17T10:53:30.966Z,66.07
2023-04-17T10:55:57.396Z,67.65
2023-04-17T10:58:23.670Z,69.11
2023-04-17T11:01:02.160Z,69.92
2023-04-17T11:03:29.224Z,70.90
2023-04-17T11:05:58.244Z,71.40
2023-04-17T11:08:24.654Z,72.33
2023-04-17T11:10:56.967Z,73.25
2023-04-17T11:13:25.451Z,74.03
2023-04-17T11:15:51.958Z,74.32
2023-04-17T11:18:20.290Z,74.48
2023-04-17T11:20:46.579Z,75.02
2023-04-17T11:23:13.105Z,75.52
2023-04-17T11:25:39.457Z,75.97
2023-04-17T11:28:06.345Z,76.38
2023-04-17T11:30:34.480Z,76.70
2023-04-17T11:33:02.143Z,76.95
2023-04-17T11:35:32.924Z,76.85
2023-04-17T11:38:10.501Z,76.74
2023-04-17T11:40:52.006Z,76.20
2023-04-17T11:43:20.239Z,76.05
2023-04-17T11:45:47.838Z,76.20
2023-04-17T11:48:14.688Z,76.54
2023-04-17T11:50:42.510Z,76.84
2023-04-17T11:53:11.619Z,77.52
2023-04-17T11:55:38.269Z,77.76
2023-04-17T11:58:05.839Z,78.57
2023-04-17T12:00:32.956Z,78.92
2023-04-17T12:03:00.799Z,79.14
2023-04-17T12:05:28.487Z,79.12
2023-04-17T12:07:58.718Z,79.26
2023-04-17T12:10:35.010Z,79.55
2023-04-17T12:13:01.329Z,79.93
2023-04-17T12:15:27.614Z,80.29
2023-04-17T12:17:53.952Z,80.53
2023-04-17T12:20:20.247Z,80.63
2023-04-17T12:22:46.526Z,80.31
2023-04-17T12:25:12.908Z,79.71
2023-04-17T12:27:39.348Z,79.14
2023-04-17T12:30:05.938Z,79.06
2023-04-17T12:32:32.373Z,78.92
2023-04-17T12:34:58.713Z,78.66
2023-04-17T12:37:25.216Z,78.32
2023-04-17T12:39:51.634Z,77.95
2023-04-17T12:42:17.975Z,77.65
2023-04-17T12:44:44.296Z,77.60
2023-04-17T12:47:10.588Z,77.48
2023-04-17T12:49:37.005Z,77.66
2023-04-17T12:52:04.043Z,77.80
2023-04-17T12:54:30.604Z,78.18
2023-04-17T12:56:57.315Z,78.53
2023-04-17T12:59:23.731Z,78.45
2023-04-17T13:01:50.247Z,78.71
2023-04-17T13:04:17.083Z,78.93
2023-04-17T13:06:43.713Z,78.96
2023-04-17T13:09:10.380Z,78.91
2023-04-17T13:11:37.408Z,78.99
2023-04-17T13:14:03.888Z,79.29
2023-04-17T13:16:30.389Z,79.22
2023-04-17T13:18:56.724Z,79.57
2023-04-17T13:21:23.120Z,79.31
2023-04-17T13:23:49.507Z,79.62
2023-04-17T13:26:15.986Z,79.85
2023-04-17T13:28:42.409Z,79.81
2023-04-17T13:31:08.825Z,79.92
2023-04-17T13:33:35.148Z,79.72
2023-04-17T13:36:01.460Z,79.36
2023-04-17T13:38:28.087Z,78.81
2023-04-17T13:40:54.446Z,78.56
2023-04-17T13:43:20.870Z,78.69
2023-04-17T13:45:47.505Z,78.49
2023-04-17T13:48:14.053Z,78.20
2023-04-17T13:50:40.836Z,78.27
2023-04-17T13:53:08.529Z,78.17
2023-04-17T13:55:36.586Z,77.99
2023-04-17T13:58:03.061Z,77.77
2023-04-17T14:00:29.570Z,77.41
2023-04-17T14:02:56.133Z,77.47
2023-04-17T14:05:22.523Z,77.49
2023-04-17T14:07:48.857Z,77.40
2023-04-17T14:10:15.228Z,77.26
2023-04-17T14:12:41.517Z,77.56
2023-04-17T14:15:08.204Z,77.88
2023-04-17T14:17:35.518Z,78.01
2023-04-17T14:20:01.939Z,78.05
2023-04-17T14:22:28.548Z,77.96
2023-04-17T14:24:55.112Z,77.81
2023-04-17T14:27:21.350Z,77.80
2023-04-17T14:29:47.621Z,77.92
2023-04-17T14:32:13.930Z,78.18
2023-04-17T14:34:40.221Z,78.39
2023-04-17T14:37:06.953Z,78.48
2023-04-17T14:39:33.266Z,78.57
2023-04-17T14:42:01.351Z,78.60
2023-04-17T14:44:28.689Z,78.74
2023-04-17T14:46:55.024Z,78.96
2023-04-17T14:49:21.509Z,79.23
2023-04-17T14:51:48.106Z,79.28
2023-04-17T14:54:15.640Z,79.44
2023-04-17T14:56:42.446Z,79.60
2023-04-17T14:59:08.996Z,79.76
2023-04-17T15:01:35.369Z,79.84
2023-04-17T15:04:01.909Z,80.00
2023-04-17T15:06:28.762Z,80.32
2023-04-17T15:08:55.514Z,80.64
2023-04-17T15:11:22.114Z,80.90
2023-04-17T15:13:48.869Z,81.10
2023-04-17T15:16:15.232Z,81.22
2023-04-17T15:18:41.687Z,81.30
2023-04-17T15:21:07.986Z,81.48
2023-04-17T15:23:34.272Z,81.38
2023-04-17T15:26:00.759Z,81.53
2023-04-17T15:28:27.418Z,81.36
2023-04-17T15:30:54.640Z,81.33
2023-04-17T15:33:21.028Z,81.28
2023-04-17T15:35:52.700Z,81.29
2023-04-17T15:38:18.958Z,81.23
2023-04-17T15:40:45.292Z,81.32
2023-04-17T15:43:11.751Z,81.49
2023-04-17T15:45:38.179Z,81.39
2023-04-17T15:48:04.629Z,81.34
2023-04-17T15:50:31.029Z,81.42
2023-04-17T15:52:57.371Z,81.34
2023-04-17T15:55:23.724Z,81.22
2023-04-17T15:57:50.221Z,81.16
2023-04-17T16:00:17.082Z,81.18
2023-04-17T16:02:43.664Z,81.28
2023-04-17T16:05:10.779Z,81.38
2023-04-17T16:07:37.086Z,81.45
2023-04-17T16:10:03.734Z,81.43
2023-04-17T16:12:30.069Z,81.49
2023-04-17T16:14:56.340Z,81.55
2023-04-17T16:17:22.864Z,81.60
2023-04-17T16:19:50.752Z,81.70
2023-04-17T16:22:17.835Z,81.68
2023-04-17T16:24:44.397Z,81.79
2023-04-17T16:27:10.769Z,81.73
2023-04-17T16:29:37.091Z,81.62
2023-04-17T16:32:03.545Z,81.56
2023-04-17T16:34:29.879Z,81.62
2023-04-17T16:36:56.212Z,81.61
2023-04-17T16:39:22.518Z,81.63
2023-04-17T16:41:48.933Z,81.62
2023-04-17T16:44:15.405Z,81.70
2023-04-17T16:46:59.246Z,81.78
2023-04-17T16:49:28.655Z,81.76
2023-04-17T16:51:55.084Z,81.78
2023-04-17T16:54:21.691Z,81.86
2023-04-17T16:56:48.730Z,82.01
2023-04-17T16:59:15.299Z,82.23
2023-04-17T17:01:41.719Z,82.58
2023-04-17T17:04:08.458Z,82.98
2023-04-17T17:06:35.045Z,83.07
2023-04-17T17:09:01.392Z,83.30
2023-04-17T17:11:27.969Z,83.38
2023-04-17T17:13:54.478Z,83.50
2023-04-17T17:16:21.026Z,83.75
2023-04-17T17:18:48.269Z,84.10
2023-04-17T17:21:14.730Z,84.15
2023-04-17T17:23:41.363Z,84.19
2023-04-17T17:26:08.183Z,84.21
2023-04-17T17:28:34.589Z,84.34
2023-04-17T17:31:01.713Z,84.35
2023-04-17T17:33:28.957Z,84.39
2023-04-17T17:35:55.811Z,84.42
2023-04-17T17:38:22.712Z,84.44
2023-04-17T17:40:51.778Z,84.48
2023-04-17T17:43:18.437Z,84.64
2023-04-17T17:45:45.430Z,84.79
2023-04-17T17:48:11.895Z,84.88
2023-04-17T17:50:39.543Z,85.01
2023-04-17T17:53:06.133Z,85.13
2023-04-17T17:55:32.545Z,85.28
2023-04-17T17:57:58.925Z,85.14
2023-04-17T18:00:25.358Z,85.28
2023-04-17T18:02:51.987Z,85.35
2023-04-17T18:05:18.654Z,85.66
2023-04-17T18:07:45.396Z,85.67
2023-04-17T18:10:12.319Z,85.70
2023-04-17T18:12:39.065Z,85.79
2023-04-17T18:15:06.287Z,85.74
2023-04-17T18:17:32.712Z,85.98
2023-04-17T18:19:59.497Z,85.78
2023-04-17T18:22:26.119Z,85.86
2023-04-17T18:24:53.383Z,85.90
2023-04-17T18:27:20.143Z,86.04
2023-04-17T18:29:46.826Z,86.13
2023-04-17T18:32:13.591Z,86.16
2023-04-17T18:34:40.266Z,86.27
2023-04-17T18:37:06.791Z,86.29
2023-04-17T18:39:33.714Z,86.33
2023-04-17T18:42:00.209Z,86.45
2023-04-17T18:44:26.861Z,86.49
2023-04-17T18:46:53.686Z,86.50
2023-04-17T18:49:20.134Z,86.54
2023-04-17T18:51:48.524Z,86.56
2023-04-17T18:54:40.513Z,86.74
2023-04-17T18:57:10.008Z,86.75
2023-04-17T18:59:59.152Z,86.75
2023-04-17T19:02:27.745Z,86.75
2023-04-17T19:04:56.158Z,86.77
2023-04-17T19:07:22.997Z,86.85
2023-04-17T19:09:49.805Z,86.89
2023-04-17T19:12:44.570Z,86.98
2023-04-17T19:15:13.275Z,86.94
2023-04-17T19:17:39.761Z,86.97
2023-04-17T19:22:49.396Z,86.89
2023-04-17T19:25:16.259Z,86.91
2023-04-17T19:27:42.703Z,87.01
2023-04-17T19:30:09.611Z,87.00
2023-04-17T19:32:36.209Z,87.07
2023-04-17T19:35:06.309Z,87.12
2023-04-17T19:37:33.196Z,87.09
2023-04-17T19:40:08.479Z,87.06
2023-04-17T19:42:41.078Z,87.23
2023-04-17T19:45:08.210Z,87.28
2023-04-17T19:47:35.130Z,87.38
2023-04-17T19:50:01.688Z,87.40
2023-04-17T19:52:28.817Z,87.32
2023-04-17T19:54:55.556Z,87.34
2023-04-17T19:57:24.328Z,87.35
2023-04-17T19:59:50.910Z,87.38
2023-04-17T20:02:17.463Z,87.34
2023-04-17T20:04:44.230Z,87.32
2023-04-17T20:07:10.806Z,87.37
2023-04-17T20:09:41.713Z,87.38
2023-04-17T20:12:08.301Z,87.42
2023-04-17T20:14:34.966Z,87.44
2023-04-17T20:17:01.535Z,87.59
2023-04-17T20:19:27.893Z,87.63
2023-04-17T20:21:54.388Z,87.66
2023-04-17T20:24:20.723Z,87.77
2023-04-17T20:26:47.472Z,87.81
2023-04-17T20:29:14.023Z,87.96
2023-04-17T20:31:40.702Z,88.00
2023-04-17T20:34:07.199Z,87.98
2023-04-17T20:36:33.632Z,88.02
2023-04-17T20:39:00.017Z,88.01
2023-04-17T20:41:26.348Z,88.03
2023-04-17T20:43:59.261Z,88.09
2023-04-17T20:46:26.234Z,88.10
2023-04-17T20:48:52.804Z,88.09
2023-04-17T20:51:20.398Z,88.08
2023-04-17T20:53:46.682Z,88.19
2023-04-17T20:56:13.019Z,88.00
2023-04-17T20:58:39.299Z,88.01
2023-04-17T21:01:05.562Z,88.06
2023-04-17T21:03:32.066Z,88.06
2023-04-17T21:05:59.006Z,88.14
2023-04-17T21:08:25.462Z,88.18
2023-04-17T21:10:51.786Z,88.21
2023-04-17T21:13:18.088Z,88.18
2023-04-17T21:15:44.416Z,88.20
2023-04-17T21:18:10.805Z,88.18
2023-04-17T21:20:39.274Z,88.13
2023-04-17T21:23:05.611Z,88.18
2023-04-17T21:25:32.029Z,88.16
2023-04-17T21:27:58.421Z,88.14
2023-04-17T21:30:27.139Z,88.11
2023-04-17T21:32:53.791Z,88.08
2023-04-17T21:35:20.203Z,88.13
2023-04-17T21:37:46.504Z,88.18
2023-04-17T21:40:13.048Z,88.17
2023-04-17T21:42:39.373Z,88.21
2023-04-17T21:45:05.982Z,88.25
2023-04-17T21:47:32.683Z,88.27
2023-04-17T21:49:58.991Z,88.27
2023-04-17T21:52:25.298Z,88.27
2023-04-17T21:54:51.613Z,88.30
2023-04-17T21:57:17.936Z,88.36
2023-04-17T21:59:44.359Z,88.42
2023-04-17T22:02:10.766Z,88.45
2023-04-17T22:04:37.105Z,88.46
2023-04-17T22:07:03.522Z,88.51
2023-04-17T22:09:29.872Z,88.59
2023-04-17T22:11:56.274Z,88.61
2023-04-17T22:14:22.569Z,88.59
2023-04-17T22:16:48.929Z,88.62
2023-04-17T22:19:15.222Z,88.60
2023-04-17T22:21:41.507Z,88.63
2023-04-17T22:24:07.813Z,88.66
2023-04-17T22:26:34.159Z,88.64
2023-04-17T22:29:00.397Z,88.67
2023-04-17T22:31:26.817Z,88.72
2023-04-17T22:33:53.152Z,88.73
2023-04-17T22:36:19.398Z,88.77
2023-04-17T22:38:45.708Z,88.80
2023-04-17T22:41:12.008Z,88.78
2023-04-17T22:43:38.247Z,88.77
2023-04-17T22:46:05.035Z,88.82
2023-04-17T22:48:31.369Z,88.85
2023-04-17T22:50:57.610Z,88.86
2023-04-17T22:53:23.985Z,88.90
2023-04-17T22:56:03.038Z,88.95
2023-04-17T22:58:29.971Z,88.95
2023-04-17T23:00:56.253Z,88.95
2023-04-17T23:03:22.646Z,88.95
2023-04-17T23:05:48.923Z,89.00
2023-04-17T23:08:15.300Z,89.04
2023-04-17T23:10:41.735Z,89.06
2023-04-17T23:13:08.909Z,89.05
2023-04-17T23:15:35.627Z,89.10
2023-04-17T23:18:02.163Z,89.13
2023-04-17T23:20:28.478Z,89.15
2023-04-17T23:22:54.757Z,89.23
2023-04-17T23:25:21.133Z,89.31
2023-04-17T23:27:47.327Z,89.37
2023-04-17T23:30:13.759Z,89.37
2023-04-17T23:32:40.067Z,89.38
2023-04-17T23:35:06.730Z,89.40
2023-04-17T23:37:32.984Z,89.44
2023-04-17T23:39:59.323Z,89.46
2023-04-17T23:42:25.773Z,89.49
2023-04-17T23:44:52.893Z,89.52
2023-04-17T23:47:19.204Z,89.55
2023-04-17T23:49:45.494Z,89.56
2023-04-17T23:52:11.846Z,89.57
2023-04-17T23:54:38.131Z,89.56
2023-04-17T23:57:04.368Z,89.55
2023-04-17T23:59:30.656Z,89.53
